Time;durP1;ratioP1;P1;durP2;ratioP2;P2;SDS_P1;SDS_P2;PMS_P1;PMS_P2;Temp;Humidity;BMP_temperature;BMP_pressure;BME280_temperature;BME280_humidity;BME280_pressure;Samples;Min_cycle;Max_cycle;Signal;HPM_P1;HPM_P2
2022/03/12 00:01:47;;;;;;;;;;;21.50;27.80;;;;;;5072453;28;19924;-52
2022/03/12 00:04:13;;;;;;;;;;;21.50;28.20;;;;;;5072666;28;19960;-53
2022/03/12 00:06:39;;;;;;;;;;;21.50;28.00;;;;;;5065004;28;19933;-53
2022/03/12 00:09:05;;;;;;;;;;;21.50;27.30;;;;;;5072348;28;19917;-53
2022/03/12 00:11:34;;;;;;;;;;;21.50;26.90;;;;;;5073017;28;20276;-53
2022/03/12 00:14:00;;;;;;;;;;;21.50;27.20;;;;;;5068679;28;19930;-53
2022/03/12 00:16:26;;;;;;;;;;;21.40;27.30;;;;;;5073193;28;20350;-53
2022/03/12 00:18:55;;;;;;;;;;;21.40;27.10;;;;;;5072978;28;20433;-53
2022/03/12 00:21:23;;;;;;;;;;;21.30;27.10;;;;;;5073117;28;19919;-53
2022/03/12 00:23:50;;;;;;;;;;;21.30;27.00;;;;;;5073105;28;20321;-53
2022/03/12 00:26:17;;;;;;;;;;;21.30;26.90;;;;;;5071194;28;19917;-53
2022/03/12 00:28:43;;;;;;;;;;;21.30;27.00;;;;;;5071119;28;19970;-53
2022/03/12 00:31:09;;;;;;;;;;;21.30;26.90;;;;;;5071168;28;19916;-53
2022/03/12 00:33:34;;;;;;;;;;;21.30;27.00;;;;;;5072449;28;20292;-53
2022/03/12 00:36:01;;;;;;;;;;;21.20;27.10;;;;;;5072350;28;19916;-53
2022/03/12 00:38:26;;;;;;;;;;;21.20;27.10;;;;;;5061736;28;20357;-54
2022/03/12 00:40:52;;;;;;;;;;;21.20;27.00;;;;;;5063434;28;19920;-54
2022/03/12 00:43:18;;;;;;;;;;;21.20;27.00;;;;;;5072498;28;19985;-54
2022/03/12 00:45:44;;;;;;;;;;;21.20;26.90;;;;;;5071072;28;19912;-53
2022/03/12 00:48:09;;;;;;;;;;;21.20;27.10;;;;;;5072383;28;20007;-53
2022/03/12 00:50:35;;;;;;;;;;;21.20;26.80;;;;;;5072169;28;19956;-53
2022/03/12 00:53:00;;;;;;;;;;;21.20;27.00;;;;;;5072481;28;19928;-53
2022/03/12 00:55:26;;;;;;;;;;;21.20;26.90;;;;;;5072100;28;19912;-53
2022/03/12 00:57:52;;;;;;;;;;;21.20;26.80;;;;;;5071032;28;19912;-54
2022/03/12 01:00:18;;;;;;;;;;;21.20;27.00;;;;;;5066671;28;19957;-53
2022/03/12 01:02:43;;;;;;;;;;;21.10;26.90;;;;;;5072154;28;19916;-53
2022/03/12 01:05:09;;;;;;;;;;;21.20;27.10;;;;;;5070954;28;19927;-53
2022/03/12 01:07:35;;;;;;;;;;;21.10;26.90;;;;;;5072712;28;19928;-54
2022/03/12 01:10:00;;;;;;;;;;;21.10;26.90;;;;;;5071851;28;19939;-53
2022/03/12 01:12:26;;;;;;;;;;;21.10;26.80;;;;;;5072270;28;19913;-53
2022/03/12 01:14:51;;;;;;;;;;;21.00;26.80;;;;;;5071351;28;20043;-53
2022/03/12 01:17:17;;;;;;;;;;;21.10;26.90;;;;;;5071234;28;20372;-53
2022/03/12 01:19:42;;;;;;;;;;;21.10;26.70;;;;;;5071719;28;20396;-53
2022/03/12 01:22:13;;;;;;;;;;;21.00;26.80;;;;;;5068650;28;19913;-53
2022/03/12 01:24:40;;;;;;;;;;;21.00;26.70;;;;;;5066570;28;20302;-53
2022/03/12 01:27:05;;;;;;;;;;;21.00;26.90;;;;;;5071027;28;19917;-53
2022/03/12 01:29:31;;;;;;;;;;;21.00;26.90;;;;;;5071144;28;19920;-54
2022/03/12 01:31:56;;;;;;;;;;;21.00;26.90;;;;;;5072282;28;20354;-53
2022/03/12 01:34:21;;;;;;;;;;;20.90;26.80;;;;;;5060500;28;19913;-53
2022/03/12 01:36:47;;;;;;;;;;;20.90;26.80;;;;;;5070083;28;19913;-53
2022/03/12 01:39:12;;;;;;;;;;;20.90;26.80;;;;;;5067439;28;20003;-54
2022/03/12 01:41:38;;;;;;;;;;;20.90;26.90;;;;;;5067915;28;20338;-54
2022/03/12 01:44:05;;;;;;;;;;;20.80;26.80;;;;;;5068439;28;19913;-53
2022/03/12 01:46:34;;;;;;;;;;;20.80;26.90;;;;;;5067858;28;20000;-53
2022/03/12 01:48:59;;;;;;;;;;;20.80;26.90;;;;;;5065870;28;20542;-52
2022/03/12 01:51:26;;;;;;;;;;;20.80;26.90;;;;;;5055318;28;20015;-54
2022/03/12 01:53:52;;;;;;;;;;;20.70;26.80;;;;;;5062757;28;20002;-53
2022/03/12 01:56:18;;;;;;;;;;;20.70;26.90;;;;;;5068029;28;20344;-53
2022/03/12 01:58:47;;;;;;;;;;;20.70;26.90;;;;;;5064672;28;19920;-53
2022/03/12 02:01:13;;;;;;;;;;;20.70;27.00;;;;;;5068019;28;19921;-53
2022/03/12 02:03:38;;;;;;;;;;;20.70;27.00;;;;;;5071015;28;20668;-53
2022/03/12 02:06:05;;;;;;;;;;;20.60;26.90;;;;;;5069665;28;19931;-53
2022/03/12 02:08:30;;;;;;;;;;;20.60;27.00;;;;;;5070013;28;19916;-53
2022/03/12 02:10:59;;;;;;;;;;;20.60;27.00;;;;;;5070106;28;20022;-53
2022/03/12 02:13:25;;;;;;;;;;;20.60;26.90;;;;;;5071092;28;19916;-53
2022/03/12 02:16:10;;;;;;;;;;;20.50;27.10;;;;;;5067262;28;19935;-53
2022/03/12 02:18:36;;;;;;;;;;;20.50;27.10;;;;;;5070533;28;19919;-53
2022/03/12 02:21:01;;;;;;;;;;;20.60;27.50;;;;;;5062631;28;19913;-53
2022/03/12 02:23:27;;;;;;;;;;;20.70;27.50;;;;;;5069274;28;19920;-53
2022/03/12 02:25:52;;;;;;;;;;;20.70;27.50;;;;;;5069459;28;19999;-53
2022/03/12 02:28:18;;;;;;;;;;;20.90;27.40;;;;;;5065433;28;19913;-53
2022/03/12 02:30:54;;;;;;;;;;;21.10;27.30;;;;;;5071154;28;19920;-52
2022/03/12 02:33:28;;;;;;;;;;;21.30;26.90;;;;;;5062471;28;19912;-53
2022/03/12 02:35:53;;;;;;;;;;;21.70;26.80;;;;;;5071105;28;20364;-53
2022/03/12 02:38:20;;;;;;;;;;;22.10;26.50;;;;;;5070118;28;19947;-53
2022/03/12 02:40:49;;;;;;;;;;;22.40;26.30;;;;;;5067585;28;19916;-53
2022/03/12 02:43:14;;;;;;;;;;;22.70;26.00;;;;;;5071415;28;19923;-53
2022/03/12 02:45:40;;;;;;;;;;;23.00;25.90;;;;;;5069306;28;20272;-53
2022/03/12 02:48:09;;;;;;;;;;;23.20;25.70;;;;;;5065689;28;19920;-53
2022/03/12 02:50:34;;;;;;;;;;;23.40;25.60;;;;;;5053492;28;19924;-53
2022/03/12 02:53:00;;;;;;;;;;;23.50;25.40;;;;;;5062511;28;19913;-53
2022/03/12 02:55:26;;;;;;;;;;;23.50;25.30;;;;;;5068542;28;19912;-53
2022/03/12 02:57:51;;;;;;;;;;;23.50;25.20;;;;;;5067945;28;19955;-53
2022/03/12 03:00:18;;;;;;;;;;;23.50;25.20;;;;;;5070113;28;20341;-54
2022/03/12 03:02:48;;;;;;;;;;;23.60;25.20;;;;;;5068631;28;19916;-53
2022/03/12 03:05:41;;;;;;;;;;;23.50;25.30;;;;;;5071808;28;20273;-53
2022/03/12 03:08:07;;;;;;;;;;;23.40;25.30;;;;;;5063104;28;19913;-53
2022/03/12 03:10:34;;;;;;;;;;;23.30;25.30;;;;;;5073554;28;19970;-53
2022/03/12 03:13:18;;;;;;;;;;;23.30;25.50;;;;;;5074404;28;19965;-53
2022/03/12 03:15:47;;;;;;;;;;;23.10;25.60;;;;;;5073732;28;20297;-53
2022/03/12 03:18:13;;;;;;;;;;;23.00;25.70;;;;;;5074057;28;19966;-52
2022/03/12 03:20:39;;;;;;;;;;;22.80;25.70;;;;;;5073609;28;19916;-53
2022/03/12 03:23:05;;;;;;;;;;;22.70;25.80;;;;;;5068474;28;19913;-52
2022/03/12 03:25:31;;;;;;;;;;;22.60;25.90;;;;;;5060057;28;19980;-52
2022/03/12 03:27:56;;;;;;;;;;;22.50;26.10;;;;;;5073365;28;19934;-53
2022/03/12 03:30:22;;;;;;;;;;;22.40;26.10;;;;;;5073811;28;19917;-52
2022/03/12 03:32:47;;;;;;;;;;;22.30;26.70;;;;;;5072492;28;19924;-52
2022/03/12 03:35:12;;;;;;;;;;;22.30;26.20;;;;;;5073490;28;19939;-52
2022/03/12 03:37:38;;;;;;;;;;;22.30;26.20;;;;;;5074458;28;19985;-52
2022/03/12 03:40:04;;;;;;;;;;;22.30;26.20;;;;;;5073594;28;20411;-52
2022/03/12 03:42:29;;;;;;;;;;;22.30;26.20;;;;;;5074141;28;19917;-52
2022/03/12 03:44:59;;;;;;;;;;;22.30;26.20;;;;;;5069636;28;20351;-52
2022/03/12 03:47:25;;;;;;;;;;;22.20;26.20;;;;;;5074284;28;19912;-52
2022/03/12 03:49:50;;;;;;;;;;;22.30;26.20;;;;;;5066205;28;19962;-53
2022/03/12 03:52:16;;;;;;;;;;;22.30;26.10;;;;;;5073896;28;19939;-53
2022/03/12 03:54:42;;;;;;;;;;;22.40;26.00;;;;;;5074050;28;19908;-53
2022/03/12 03:57:10;;;;;;;;;;;22.50;26.10;;;;;;5072878;28;19940;-53
2022/03/12 03:59:35;;;;;;;;;;;22.50;25.80;;;;;;5073531;28;19912;-53
2022/03/12 04:02:00;;;;;;;;;;;22.50;25.80;;;;;;5072402;28;19912;-53
2022/03/12 04:04:28;;;;;;;;;;;22.60;25.80;;;;;;5073377;28;19912;-52
2022/03/12 04:06:54;;;;;;;;;;;22.50;25.80;;;;;;5066109;28;20323;-52
2022/03/12 04:09:19;;;;;;;;;;;22.40;25.90;;;;;;5073373;28;19916;-53
2022/03/12 04:11:45;;;;;;;;;;;22.40;26.00;;;;;;5072202;28;19927;-54
2022/03/12 04:14:10;;;;;;;;;;;22.40;26.50;;;;;;5071600;28;20371;-53
2022/03/12 04:16:37;;;;;;;;;;;22.40;25.90;;;;;;5072928;28;19917;-53
2022/03/12 04:19:07;;;;;;;;;;;22.40;25.90;;;;;;5066930;28;19919;-54
2022/03/12 04:21:32;;;;;;;;;;;22.40;25.80;;;;;;5073299;28;20264;-53
2022/03/12 04:23:58;;;;;;;;;;;22.50;25.70;;;;;;5056586;28;20018;-53
2022/03/12 04:26:23;;;;;;;;;;;22.50;25.70;;;;;;5068179;28;19916;-53
2022/03/12 04:28:49;;;;;;;;;;;22.40;25.70;;;;;;5072096;28;19924;-54
2022/03/12 04:31:15;;;;;;;;;;;22.50;25.70;;;;;;5068257;28;19962;-53
2022/03/12 04:33:40;;;;;;;;;;;22.50;26.10;;;;;;5072786;28;19912;-53
2022/03/12 04:36:09;;;;;;;;;;;22.50;25.60;;;;;;5061029;28;19959;-54
2022/03/12 04:38:35;;;;;;;;;;;22.40;25.70;;;;;;5064790;28;19959;-54
2022/03/12 04:41:01;;;;;;;;;;;22.40;25.70;;;;;;5058456;28;19955;-54
2022/03/12 04:43:26;;;;;;;;;;;22.40;25.60;;;;;;5068969;28;19957;-54
2022/03/12 04:45:52;;;;;;;;;;;22.40;25.80;;;;;;5071760;28;19912;-54
2022/03/12 04:48:18;;;;;;;;;;;22.40;25.80;;;;;;5072932;28;20411;-54
2022/03/12 04:50:44;;;;;;;;;;;22.40;25.80;;;;;;5072232;28;19990;-54
2022/03/12 04:53:09;;;;;;;;;;;22.40;25.90;;;;;;5073233;28;20373;-53
2022/03/12 04:55:38;;;;;;;;;;;22.30;25.80;;;;;;5072495;28;20402;-53
2022/03/12 04:58:04;;;;;;;;;;;22.30;25.80;;;;;;5070961;28;20379;-53
2022/03/12 05:00:30;;;;;;;;;;;22.30;25.80;;;;;;5067672;28;19948;-53
2022/03/12 05:02:56;;;;;;;;;;;22.30;25.80;;;;;;5070605;28;19963;-53
2022/03/12 05:05:22;;;;;;;;;;;22.30;25.80;;;;;;5066164;28;19931;-53
2022/03/12 05:07:48;;;;;;;;;;;22.30;25.80;;;;;;5070635;28;19916;-53
2022/03/12 05:10:16;;;;;;;;;;;22.30;25.80;;;;;;5071924;28;19921;-53
2022/03/12 05:12:43;;;;;;;;;;;22.30;25.80;;;;;;5072434;28;19999;-53
2022/03/12 05:15:14;;;;;;;;;;;22.30;25.80;;;;;;5070472;28;19920;-53
2022/03/12 05:17:40;;;;;;;;;;;22.20;25.80;;;;;;5055555;28;20153;-54
2022/03/12 05:20:07;;;;;;;;;;;22.20;25.70;;;;;;5071502;28;19947;-53
2022/03/12 05:22:32;;;;;;;;;;;22.20;25.80;;;;;;5072323;28;19958;-54
2022/03/12 05:24:58;;;;;;;;;;;22.20;25.80;;;;;;5070388;28;20310;-54
2022/03/12 05:27:25;;;;;;;;;;;22.20;25.70;;;;;;5062895;28;20292;-53
2022/03/12 05:29:54;;;;;;;;;;;22.20;25.60;;;;;;5068826;28;19991;-53
2022/03/12 05:32:19;;;;;;;;;;;22.30;25.60;;;;;;5070326;28;19924;-53
2022/03/12 05:34:45;;;;;;;;;;;22.30;25.50;;;;;;5069470;28;19913;-53
2022/03/12 05:37:10;;;;;;;;;;;22.40;25.50;;;;;;5071310;28;19913;-53
2022/03/12 05:39:36;;;;;;;;;;;22.40;25.50;;;;;;5069629;28;20003;-54
2022/03/12 05:42:05;;;;;;;;;;;22.40;25.50;;;;;;5070881;28;19912;-53
2022/03/12 05:44:34;;;;;;;;;;;22.40;25.50;;;;;;5070731;28;19920;-53
2022/03/12 05:47:01;;;;;;;;;;;22.40;25.50;;;;;;5070741;28;19916;-53
2022/03/12 05:49:26;;;;;;;;;;;22.40;25.50;;;;;;5070904;28;20284;-53
2022/03/12 05:51:51;;;;;;;;;;;22.40;25.50;;;;;;5070539;28;19916;-53
2022/03/12 05:54:18;;;;;;;;;;;22.40;25.80;;;;;;5071286;28;19916;-53
2022/03/12 05:56:43;;;;;;;;;;;22.40;25.50;;;;;;5067798;28;19913;-53
2022/03/12 05:59:08;;;;;;;;;;;22.40;25.50;;;;;;5063865;28;19916;-53
2022/03/12 06:01:34;;;;;;;;;;;22.30;25.40;;;;;;5070797;28;19956;-53
2022/03/12 06:04:03;;;;;;;;;;;22.30;25.40;;;;;;5069559;28;20310;-54
2022/03/12 06:06:30;;;;;;;;;;;22.30;25.60;;;;;;5070020;28;20383;-53
2022/03/12 06:08:57;;;;;;;;;;;22.30;25.40;;;;;;5071583;28;19912;-53
2022/03/12 06:11:25;;;;;;;;;;;22.30;25.40;;;;;;5069836;28;19917;-53
2022/03/12 06:13:54;;;;;;;;;;;22.30;25.40;;;;;;5064857;28;19920;-53
2022/03/12 06:16:20;;;;;;;;;;;22.30;25.40;;;;;;5070446;28;19931;-53
2022/03/12 06:18:45;;;;;;;;;;;22.30;25.50;;;;;;5070579;28;19920;-53
2022/03/12 06:21:11;;;;;;;;;;;22.30;25.50;;;;;;5068577;28;20386;-53
2022/03/12 06:23:36;;;;;;;;;;;22.30;25.50;;;;;;5063752;28;20403;-53
2022/03/12 06:26:02;;;;;;;;;;;22.30;25.50;;;;;;5070792;28;20441;-54
2022/03/12 06:28:27;;;;;;;;;;;22.30;25.50;;;;;;5052710;28;19913;-53
2022/03/12 06:30:53;;;;;;;;;;;22.30;25.50;;;;;;5065028;28;19927;-53
2022/03/12 06:33:19;;;;;;;;;;;22.30;25.40;;;;;;5071346;28;20419;-53
2022/03/12 06:35:46;;;;;;;;;;;22.30;25.50;;;;;;5069500;28;20360;-53
2022/03/12 06:38:12;;;;;;;;;;;22.30;25.40;;;;;;5069452;28;19913;-53
2022/03/12 06:40:38;;;;;;;;;;;22.30;25.40;;;;;;5062504;28;19967;-53
2022/03/12 06:43:09;;;;;;;;;;;22.30;25.40;;;;;;5074506;28;19924;-53
2022/03/12 06:45:35;;;;;;;;;;;22.30;25.40;;;;;;5064409;28;19912;-53
2022/03/12 06:48:00;;;;;;;;;;;22.20;25.40;;;;;;5075601;28;19919;-53
2022/03/12 06:50:26;;;;;;;;;;;22.20;25.40;;;;;;5074642;28;19916;-53
2022/03/12 06:52:52;;;;;;;;;;;22.20;25.40;;;;;;5075379;28;20283;-53
2022/03/12 06:55:18;;;;;;;;;;;22.20;25.40;;;;;;5072577;28;19913;-53
2022/03/12 06:57:45;;;;;;;;;;;22.20;25.30;;;;;;5067291;28;19919;-54
2022/03/12 07:00:12;;;;;;;;;;;22.20;25.30;;;;;;5072482;28;19912;-54
2022/03/12 07:02:38;;;;;;;;;;;22.20;25.30;;;;;;5070377;28;19913;-53
2022/03/12 07:05:03;;;;;;;;;;;22.20;25.30;;;;;;5072790;28;20391;-53
2022/03/12 07:07:29;;;;;;;;;;;22.20;25.30;;;;;;5074790;28;20300;-53
2022/03/12 07:09:54;;;;;;;;;;;22.20;25.40;;;;;;5074332;28;19912;-52
2022/03/12 07:12:20;;;;;;;;;;;22.20;25.40;;;;;;5074031;28;19974;-53
2022/03/12 07:14:45;;;;;;;;;;;22.20;25.30;;;;;;5074338;28;19954;-53
2022/03/12 07:17:11;;;;;;;;;;;22.20;25.10;;;;;;5074537;28;20295;-53
2022/03/12 07:19:36;;;;;;;;;;;22.30;25.20;;;;;;5073753;28;19913;-53
2022/03/12 07:22:02;;;;;;;;;;;22.30;25.10;;;;;;5060797;28;19909;-53
2022/03/12 07:24:27;;;;;;;;;;;22.30;25.20;;;;;;5067202;28;20308;-54
2022/03/12 07:26:53;;;;;;;;;;;22.30;25.10;;;;;;5073758;28;20433;-53
2022/03/12 07:29:18;;;;;;;;;;;22.30;25.10;;;;;;5073505;28;19939;-53
2022/03/12 07:31:44;;;;;;;;;;;22.30;25.10;;;;;;5073899;28;19920;-53
2022/03/12 07:34:10;;;;;;;;;;;22.30;25.00;;;;;;5072727;28;20412;-53
2022/03/12 07:36:36;;;;;;;;;;;22.30;25.00;;;;;;5074262;28;19919;-53
2022/03/12 07:39:03;;;;;;;;;;;22.30;25.10;;;;;;5069671;28;19913;-54
2022/03/12 07:41:28;;;;;;;;;;;22.30;25.00;;;;;;5073678;28;20360;-53
2022/03/12 07:43:54;;;;;;;;;;;22.30;25.10;;;;;;5070095;28;19913;-54
2022/03/12 07:46:21;;;;;;;;;;;22.30;25.10;;;;;;5058140;28;20009;-53
2022/03/12 07:48:47;;;;;;;;;;;22.30;25.00;;;;;;5068670;28;20106;-54
2022/03/12 07:51:13;;;;;;;;;;;22.40;25.00;;;;;;5073013;28;20003;-54
2022/03/12 07:53:39;;;;;;;;;;;22.30;24.90;;;;;;5071978;28;19920;-53
2022/03/12 07:56:05;;;;;;;;;;;22.30;25.00;;;;;;5072027;28;19912;-53
2022/03/12 07:58:31;;;;;;;;;;;22.30;24.90;;;;;;5068800;28;19913;-53
2022/03/12 08:00:57;;;;;;;;;;;22.30;24.90;;;;;;5066247;28;19909;-52
2022/03/12 08:03:23;;;;;;;;;;;22.30;25.00;;;;;;5070833;28;19920;-52
2022/03/12 08:05:49;;;;;;;;;;;22.30;25.10;;;;;;5065564;28;20342;-53
2022/03/12 08:08:14;;;;;;;;;;;22.20;25.10;;;;;;5070051;28;20395;-53
2022/03/12 08:13:23;;;;;;;;;;;22.20;25.30;;;;;;5068076;28;19923;-53
2022/03/12 08:15:49;;;;;;;;;;;22.20;25.40;;;;;;5072859;28;19940;-53
2022/03/12 08:18:15;;;;;;;;;;;22.30;25.40;;;;;;5073217;28;19919;-54
2022/03/12 08:20:40;;;;;;;;;;;22.40;25.40;;;;;;5070646;28;19947;-53
2022/03/12 08:23:07;;;;;;;;;;;22.50;25.20;;;;;;5074048;28;19939;-53
2022/03/12 08:25:32;;;;;;;;;;;22.60;25.10;;;;;;5068768;28;19915;-53
2022/03/12 08:27:58;;;;;;;;;;;22.80;25.00;;;;;;5065893;28;20007;-53
2022/03/12 08:30:23;;;;;;;;;;;22.90;24.90;;;;;;5059623;28;20396;-54
2022/03/12 08:32:49;;;;;;;;;;;23.00;24.70;;;;;;5071912;28;19916;-53
2022/03/12 08:35:14;;;;;;;;;;;23.00;24.70;;;;;;5069179;28;19916;-53
2022/03/12 08:37:40;;;;;;;;;;;23.10;24.60;;;;;;5069353;28;19924;-54
2022/03/12 08:40:06;;;;;;;;;;;23.20;24.60;;;;;;5058173;28;19951;-53
2022/03/12 08:42:32;;;;;;;;;;;23.20;24.60;;;;;;5060294;28;20269;-53
2022/03/12 08:44:58;;;;;;;;;;;23.30;24.60;;;;;;5067945;28;19954;-53
2022/03/12 08:47:23;;;;;;;;;;;23.30;24.50;;;;;;5070935;28;19916;-53
2022/03/12 08:49:49;;;;;;;;;;;23.30;24.50;;;;;;5067074;28;19917;-53
2022/03/12 08:52:15;;;;;;;;;;;23.30;24.50;;;;;;5054370;28;19913;-54
2022/03/12 08:54:40;;;;;;;;;;;23.30;24.60;;;;;;5059142;28;20284;-54
2022/03/12 08:57:05;;;;;;;;;;;23.30;24.60;;;;;;5058777;28;20459;-53
2022/03/12 08:59:31;;;;;;;;;;;23.30;24.60;;;;;;5061709;28;19920;-53
2022/03/12 09:01:57;;;;;;;;;;;23.40;24.60;;;;;;5062654;28;19959;-54
2022/03/12 09:04:22;;;;;;;;;;;23.40;24.60;;;;;;5058135;28;19977;-53
2022/03/12 09:06:48;;;;;;;;;;;23.40;24.70;;;;;;5064969;28;19935;-54
2022/03/12 09:09:13;;;;;;;;;;;23.30;24.70;;;;;;5072321;28;19917;-54
2022/03/12 09:11:39;;;;;;;;;;;23.30;24.70;;;;;;5063638;28;19917;-54
2022/03/12 09:14:04;;;;;;;;;;;23.30;24.80;;;;;;5070263;28;19916;-53
2022/03/12 09:16:30;;;;;;;;;;;23.30;24.80;;;;;;5071452;28;19924;-53
2022/03/12 09:18:55;;;;;;;;;;;23.30;24.80;;;;;;5060607;28;19995;-52
2022/03/12 09:21:21;;;;;;;;;;;23.40;24.90;;;;;;5072352;28;19913;-53
2022/03/12 09:23:46;;;;;;;;;;;23.50;24.90;;;;;;5066246;28;19920;-53
2022/03/12 09:26:14;;;;;;;;;;;23.50;24.80;;;;;;5072289;28;19951;-53
2022/03/12 09:28:40;;;;;;;;;;;23.60;24.90;;;;;;5067006;28;19912;-54
2022/03/12 09:31:06;;;;;;;;;;;23.70;24.90;;;;;;5056160;28;19924;-53
2022/03/12 09:33:32;;;;;;;;;;;23.80;25.00;;;;;;5052544;28;19935;-54
2022/03/12 09:35:57;;;;;;;;;;;23.80;25.10;;;;;;5056386;28;20357;-53
2022/03/12 09:38:23;;;;;;;;;;;23.80;24.90;;;;;;5057951;28;19913;-53
2022/03/12 09:40:49;;;;;;;;;;;23.80;25.10;;;;;;5060118;28;19916;-53
2022/03/12 09:43:14;;;;;;;;;;;23.70;24.70;;;;;;5063550;28;19940;-53
2022/03/12 09:45:40;;;;;;;;;;;23.60;24.80;;;;;;5068779;28;19917;-53
2022/03/12 09:48:05;;;;;;;;;;;23.60;24.70;;;;;;5061101;28;20371;-54
2022/03/12 09:50:31;;;;;;;;;;;23.60;24.60;;;;;;5070191;28;19917;-54
2022/03/12 09:52:56;;;;;;;;;;;23.50;24.40;;;;;;5060331;28;20281;-53
2022/03/12 09:55:22;;;;;;;;;;;23.50;24.50;;;;;;5065478;28;19935;-54
2022/03/12 09:57:48;;;;;;;;;;;23.50;24.60;;;;;;5062105;28;19924;-53
2022/03/12 10:00:14;;;;;;;;;;;23.50;24.80;;;;;;5071570;28;19948;-53
2022/03/12 10:02:39;;;;;;;;;;;23.50;24.80;;;;;;5061336;28;19920;-53
2022/03/12 10:05:05;;;;;;;;;;;23.60;24.80;;;;;;5058331;28;19913;-53
2022/03/12 10:07:31;;;;;;;;;;;23.50;24.70;;;;;;5056454;28;19924;-54
2022/03/12 10:09:56;;;;;;;;;;;23.50;24.60;;;;;;5061547;28;20372;-53
2022/03/12 10:12:22;;;;;;;;;;;23.50;24.50;;;;;;5066296;28;20297;-53
2022/03/12 10:14:49;;;;;;;;;;;23.50;24.50;;;;;;5064241;28;19913;-52
2022/03/12 10:17:15;;;;;;;;;;;23.60;24.80;;;;;;5062182;28;19923;-53
2022/03/12 10:19:44;;;;;;;;;;;23.60;25.10;;;;;;5057713;28;19916;-54
2022/03/12 10:22:10;;;;;;;;;;;23.70;25.00;;;;;;5061144;28;19943;-54
2022/03/12 10:24:36;;;;;;;;;;;23.70;24.80;;;;;;5069680;28;19912;-53
2022/03/12 10:27:02;;;;;;;;;;;23.60;24.80;;;;;;5062771;28;19996;-54
2022/03/12 10:29:27;;;;;;;;;;;23.70;24.60;;;;;;5059015;28;19929;-54
2022/03/12 10:31:53;;;;;;;;;;;23.70;24.60;;;;;;5065901;28;20020;-54
2022/03/12 10:34:22;;;;;;;;;;;23.70;24.40;;;;;;5055894;28;19917;-54
2022/03/12 10:36:48;;;;;;;;;;;23.70;24.40;;;;;;5064355;28;19921;-54
2022/03/12 10:39:13;;;;;;;;;;;23.70;24.60;;;;;;5058655;28;19921;-54
2022/03/12 10:41:39;;;;;;;;;;;23.70;24.60;;;;;;5056243;28;20535;-54
2022/03/12 10:44:05;;;;;;;;;;;23.70;24.50;;;;;;5059964;28;19921;-54
2022/03/12 10:46:30;;;;;;;;;;;23.80;24.40;;;;;;5060550;28;19916;-53
2022/03/12 10:48:56;;;;;;;;;;;23.80;24.40;;;;;;5059517;28;19958;-55
2022/03/12 10:51:32;;;;;;;;;;;23.80;24.30;;;;;;5056079;28;19920;-53
2022/03/12 10:54:05;;;;;;;;;;;23.80;24.20;;;;;;5059777;28;19912;-53
2022/03/12 10:56:46;;;;;;;;;;;23.80;24.10;;;;;;5058843;28;19963;-53
2022/03/12 10:59:21;;;;;;;;;;;23.80;24.00;;;;;;5059628;28;19999;-53
2022/03/12 11:01:48;;;;;;;;;;;23.80;24.10;;;;;;5064617;28;20279;-53
2022/03/12 11:04:23;;;;;;;;;;;23.80;24.20;;;;;;5060581;28;19961;-53
2022/03/12 11:06:51;;;;;;;;;;;23.90;24.30;;;;;;5070841;28;19956;-52
2022/03/12 11:09:21;;;;;;;;;;;23.90;24.20;;;;;;5070873;28;19912;-53
2022/03/12 11:11:46;;;;;;;;;;;24.00;24.10;;;;;;5056532;28;19913;-54
2022/03/12 11:14:20;;;;;;;;;;;23.90;24.00;;;;;;5051480;28;19912;-53
2022/03/12 11:16:52;;;;;;;;;;;23.90;23.80;;;;;;5051343;28;20436;-53
2022/03/12 11:19:37;;;;;;;;;;;23.90;23.80;;;;;;5062056;28;19999;-52
2022/03/12 11:22:12;;;;;;;;;;;23.90;23.80;;;;;;5071260;28;19912;-52
2022/03/12 11:24:44;;;;;;;;;;;23.90;23.60;;;;;;5070759;28;19908;-53
2022/03/12 11:27:12;;;;;;;;;;;24.00;23.80;;;;;;5067957;28;20164;-53
2022/03/12 11:29:38;;;;;;;;;;;24.00;23.70;;;;;;5054807;28;19909;-53
2022/03/12 11:32:05;;;;;;;;;;;24.00;23.60;;;;;;5054468;28;19913;-53
2022/03/12 11:34:32;;;;;;;;;;;24.00;23.70;;;;;;5054412;28;19908;-53
2022/03/12 11:36:59;;;;;;;;;;;24.00;23.70;;;;;;5054780;28;20269;-53
2022/03/12 11:39:28;;;;;;;;;;;24.00;23.70;;;;;;5054434;28;19917;-53
2022/03/12 11:42:01;;;;;;;;;;;24.00;23.70;;;;;;5067612;28;19927;-53
2022/03/12 11:44:29;;;;;;;;;;;24.00;23.80;;;;;;5070365;28;19913;-53
2022/03/12 11:46:54;;;;;;;;;;;24.00;23.80;;;;;;5056016;28;19949;-53
2022/03/12 11:49:20;;;;;;;;;;;24.00;23.70;;;;;;5059737;28;19956;-53
2022/03/12 11:51:46;;;;;;;;;;;24.10;23.80;;;;;;5061668;28;19961;-53
2022/03/12 11:54:12;;;;;;;;;;;24.10;23.80;;;;;;5063278;28;19963;-53
2022/03/12 11:56:38;;;;;;;;;;;24.10;23.80;;;;;;5063012;28;20300;-53
2022/03/12 11:59:03;;;;;;;;;;;24.10;23.70;;;;;;5058979;28;20003;-53
2022/03/12 12:01:30;;;;;;;;;;;24.10;23.70;;;;;;5062901;28;19936;-53
2022/03/12 12:03:56;;;;;;;;;;;24.10;23.70;;;;;;5064823;28;20416;-54
2022/03/12 12:06:21;;;;;;;;;;;24.10;23.70;;;;;;5062540;28;20004;-53
2022/03/12 12:08:47;;;;;;;;;;;24.00;23.70;;;;;;5064216;28;20357;-53
2022/03/12 12:11:12;;;;;;;;;;;24.00;23.70;;;;;;5062836;28;19921;-53
2022/03/12 12:13:42;;;;;;;;;;;24.00;23.60;;;;;;5062873;28;20362;-53
2022/03/12 12:16:08;;;;;;;;;;;24.10;23.70;;;;;;5063901;28;20266;-53
2022/03/12 12:18:33;;;;;;;;;;;24.10;23.90;;;;;;5060955;28;19923;-53
2022/03/12 12:20:59;;;;;;;;;;;24.20;24.10;;;;;;5064169;28;19923;-53
2022/03/12 12:23:24;;;;;;;;;;;24.20;24.10;;;;;;5063734;28;20002;-53
2022/03/12 12:25:50;;;;;;;;;;;24.30;24.20;;;;;;5063311;28;19920;-53
2022/03/12 12:28:19;;;;;;;;;;;24.30;24.30;;;;;;5063588;28;19921;-53
2022/03/12 12:30:45;;;;;;;;;;;24.30;24.40;;;;;;5061054;28;20038;-53
2022/03/12 12:33:20;;;;;;;;;;;24.30;24.30;;;;;;5058265;28;19924;-53
2022/03/12 12:35:46;;;;;;;;;;;24.30;24.30;;;;;;5060589;28;21882;-53
2022/03/12 12:38:12;;;;;;;;;;;24.40;24.40;;;;;;5062281;28;19995;-53
2022/03/12 12:40:44;;;;;;;;;;;24.40;24.50;;;;;;5061227;28;19999;-53
2022/03/12 12:43:12;;;;;;;;;;;24.50;24.70;;;;;;5060727;28;19917;-53
2022/03/12 12:45:52;;;;;;;;;;;24.50;24.70;;;;;;5061799;28;19919;-53
2022/03/12 12:48:19;;;;;;;;;;;24.50;24.70;;;;;;5062845;28;19913;-53
2022/03/12 12:51:03;;;;;;;;;;;24.50;24.80;;;;;;5060549;28;19920;-53
2022/03/12 12:53:29;;;;;;;;;;;24.60;24.90;;;;;;5058875;28;19944;-53
2022/03/12 12:56:13;;;;;;;;;;;24.60;25.00;;;;;;5063279;28;20267;-53
2022/03/12 12:58:48;;;;;;;;;;;24.50;25.00;;;;;;5061077;28;19913;-52
2022/03/12 13:01:17;;;;;;;;;;;24.60;25.00;;;;;;5059752;28;19913;-52
2022/03/12 13:03:49;;;;;;;;;;;24.50;25.10;;;;;;5061656;28;19924;-52
2022/03/12 13:06:33;;;;;;;;;;;24.50;25.10;;;;;;5062659;28;20404;-52
2022/03/12 13:09:01;;;;;;;;;;;24.50;25.20;;;;;;5060446;28;19924;-52
2022/03/12 13:11:27;;;;;;;;;;;24.50;25.30;;;;;;5059905;28;19924;-52
2022/03/12 13:13:59;;;;;;;;;;;24.50;25.40;;;;;;5061400;28;19913;-53
2022/03/12 13:16:25;;;;;;;;;;;24.50;25.40;;;;;;5060405;28;19982;-52
2022/03/12 13:18:50;;;;;;;;;;;24.50;25.30;;;;;;5060095;28;19960;-52
2022/03/12 13:21:26;;;;;;;;;;;24.50;25.60;;;;;;5061547;28;20419;-52
2022/03/12 13:23:51;;;;;;;;;;;24.60;25.60;;;;;;5061548;28;19965;-54
2022/03/12 13:26:17;;;;;;;;;;;24.60;25.70;;;;;;5060131;28;19916;-52
2022/03/12 13:28:44;;;;;;;;;;;24.60;25.60;;;;;;5062565;28;19920;-53
2022/03/12 13:31:11;;;;;;;;;;;24.70;25.70;;;;;;5061124;28;20023;-53
2022/03/12 13:33:37;;;;;;;;;;;24.70;25.70;;;;;;5062579;28;20307;-53
2022/03/12 13:36:02;;;;;;;;;;;24.70;25.70;;;;;;5059948;28;19913;-53
2022/03/12 13:38:28;;;;;;;;;;;24.70;25.70;;;;;;5063253;28;20326;-53
2022/03/12 13:40:53;;;;;;;;;;;24.70;25.70;;;;;;5060055;28;20379;-53
2022/03/12 13:43:19;;;;;;;;;;;24.70;25.70;;;;;;5062030;28;19923;-52
2022/03/12 13:45:46;;;;;;;;;;;24.70;25.90;;;;;;5061846;28;19969;-52
2022/03/12 13:48:11;;;;;;;;;;;24.70;25.90;;;;;;5060811;28;19916;-52
2022/03/12 13:50:36;;;;;;;;;;;24.70;26.00;;;;;;5061390;28;19924;-52
2022/03/12 13:53:02;;;;;;;;;;;24.70;26.00;;;;;;5059800;28;19916;-52
2022/03/12 13:55:28;;;;;;;;;;;24.60;26.00;;;;;;5063894;28;20006;-52
2022/03/12 13:57:58;;;;;;;;;;;24.60;26.10;;;;;;5059761;28;19920;-52
2022/03/12 14:00:26;;;;;;;;;;;24.70;26.10;;;;;;5061738;28;20386;-52
2022/03/12 14:02:52;;;;;;;;;;;24.70;26.00;;;;;;5061538;28;19916;-52
2022/03/12 14:05:21;;;;;;;;;;;24.70;26.00;;;;;;5059843;28;20006;-52
2022/03/12 14:07:47;;;;;;;;;;;24.80;26.10;;;;;;5063116;28;21377;-53
2022/03/12 14:10:13;;;;;;;;;;;24.80;26.00;;;;;;5059766;28;20003;-52
2022/03/12 14:12:38;;;;;;;;;;;24.90;26.00;;;;;;5059645;28;19913;-53
2022/03/12 14:15:05;;;;;;;;;;;24.90;26.00;;;;;;5061574;28;20388;-53
2022/03/12 14:17:31;;;;;;;;;;;24.90;26.00;;;;;;5060861;28;19986;-53